createdAt,value
2022-12-01T00:01:30.078Z,3.10
2022-12-01T00:03:57.356Z,3.10
2022-12-01T00:06:24.392Z,3.10
2022-12-01T00:09:17.990Z,3.12
2022-12-01T00:11:51.096Z,3.13
2022-12-01T00:14:19.029Z,3.04
2022-12-01T00:16:46.205Z,2.97
2022-12-01T00:19:13.378Z,3.04
2022-12-01T00:21:40.348Z,3.04
2022-12-01T00:24:07.608Z,3.03
2022-12-01T00:26:34.582Z,2.91
2022-12-01T00:29:01.398Z,2.89
2022-12-01T00:31:28.986Z,2.83
2022-12-01T00:33:56.199Z,2.91
2022-12-01T00:36:23.414Z,2.96
2022-12-01T00:38:55.113Z,2.87
2022-12-01T00:41:23.905Z,2.84
2022-12-01T00:43:51.274Z,2.93
2022-12-01T00:46:18.920Z,2.93
2022-12-01T00:48:45.772Z,2.89
2022-12-01T00:51:12.849Z,2.98
2022-12-01T00:53:39.752Z,3.09
2022-12-01T00:56:07.048Z,2.97
2022-12-01T00:58:33.861Z,2.85
2022-12-01T01:01:02.308Z,2.87
2022-12-01T01:03:30.654Z,2.90
2022-12-01T01:06:05.183Z,2.88
2022-12-01T01:08:32.309Z,2.78
2022-12-01T01:11:00.478Z,2.89
2022-12-01T01:13:28.441Z,2.89
2022-12-01T01:16:07.649Z,2.93
2022-12-01T01:18:34.704Z,2.94
2022-12-01T01:21:12.445Z,2.90
2022-12-01T01:23:44.456Z,2.83
2022-12-01T01:26:30.649Z,2.83
2022-12-01T01:29:02.005Z,2.75
2022-12-01T01:31:30.987Z,2.79
2022-12-01T01:34:01.877Z,2.68
2022-12-01T01:36:28.980Z,2.76
2022-12-01T01:38:56.026Z,2.81
2022-12-01T01:41:24.008Z,2.74
2022-12-01T01:43:56.964Z,2.79
2022-12-01T01:46:31.982Z,2.78
2022-12-01T01:49:08.355Z,2.76
2022-12-01T01:51:50.132Z,2.71
2022-12-01T01:54:25.835Z,2.62
2022-12-01T01:56:54.235Z,2.57
2022-12-01T01:59:31.778Z,2.45
2022-12-01T02:02:08.682Z,2.61
2022-12-01T02:04:38.456Z,2.57
2022-12-01T02:07:07.001Z,2.62
2022-12-01T02:09:34.061Z,2.64
2022-12-01T02:12:20.140Z,2.33
2022-12-01T02:14:59.371Z,2.58
2022-12-01T02:17:41.767Z,2.62
2022-12-01T02:20:30.400Z,2.50
2022-12-01T02:23:21.472Z,2.48
2022-12-01T02:26:01.740Z,2.45
2022-12-01T02:28:47.306Z,2.53
2022-12-01T02:31:30.018Z,2.47
2022-12-01T02:34:27.474Z,2.47
2022-12-01T02:37:33.158Z,2.31
2022-12-01T02:40:59.254Z,2.45
2022-12-01T02:43:35.665Z,2.51
2022-12-01T02:46:18.637Z,2.54
2022-12-01T02:48:49.896Z,2.56
2022-12-01T02:51:19.705Z,2.56
2022-12-01T02:53:47.098Z,2.50
2022-12-01T02:56:16.128Z,2.39
2022-12-01T02:58:45.683Z,2.42
2022-12-01T03:01:41.417Z,2.57
2022-12-01T03:04:37.076Z,2.57
2022-12-01T03:07:33.250Z,2.50
2022-12-01T03:10:20.372Z,2.52
2022-12-01T03:13:13.651Z,2.31
2022-12-01T03:16:16.225Z,2.50
2022-12-01T03:18:53.151Z,2.51
2022-12-01T03:21:25.948Z,2.45
2022-12-01T03:24:05.780Z,2.49
2022-12-01T03:26:35.599Z,2.51
2022-12-01T03:29:14.887Z,2.50
2022-12-01T03:32:31.434Z,2.54
2022-12-01T03:35:16.852Z,2.54
2022-12-01T03:38:25.529Z,2.52
2022-12-01T03:41:09.464Z,2.38
2022-12-01T03:43:44.608Z,2.51
2022-12-01T03:46:18.406Z,2.54
2022-12-01T03:48:54.509Z,2.42
2022-12-01T03:51:35.580Z,2.47
2022-12-01T03:54:28.817Z,2.46
2022-12-01T03:57:03.359Z,2.44
2022-12-01T03:59:36.133Z,2.40
2022-12-01T04:02:03.382Z,2.39
2022-12-01T04:04:30.440Z,2.40
2022-12-01T04:07:01.091Z,2.41
2022-12-01T04:09:28.648Z,2.41
2022-12-01T04:12:15.551Z,2.37
2022-12-01T04:14:42.373Z,2.38
2022-12-01T04:17:09.270Z,2.31
2022-12-01T04:19:36.204Z,2.31
2022-12-01T04:22:03.671Z,2.35
2022-12-01T04:24:30.654Z,2.32
2022-12-01T04:27:00.716Z,2.28
2022-12-01T04:29:27.495Z,2.39
2022-12-01T04:31:54.513Z,2.38
2022-12-01T04:34:21.539Z,2.39
2022-12-01T04:36:48.447Z,2.32
2022-12-01T04:39:15.570Z,2.34
2022-12-01T04:41:43.467Z,2.30
2022-12-01T04:44:11.523Z,2.28
2022-12-01T04:46:38.588Z,2.31
2022-12-01T04:49:06.218Z,2.08
2022-12-01T04:51:33.130Z,2.36
2022-12-01T04:54:01.207Z,2.22
2022-12-01T04:56:28.077Z,2.27
2022-12-01T04:58:55.052Z,2.26
2022-12-01T05:01:21.936Z,2.26
2022-12-01T05:03:51.584Z,2.24
2022-12-01T05:06:21.439Z,2.17
2022-12-01T05:08:48.987Z,2.08
2022-12-01T05:11:16.741Z,2.18
2022-12-01T05:13:49.021Z,2.14
2022-12-01T05:16:43.848Z,2.05
2022-12-01T05:19:30.489Z,2.08
2022-12-01T05:21:57.482Z,2.12
2022-12-01T05:24:24.495Z,2.12
2022-12-01T05:26:51.725Z,2.10
2022-12-01T05:29:18.620Z,2.09
2022-12-01T05:31:46.699Z,2.16
2022-12-01T05:34:14.083Z,2.13
2022-12-01T05:36:41.068Z,2.08
2022-12-01T05:39:08.195Z,2.10
2022-12-01T05:41:35.106Z,2.04
2022-12-01T05:44:02.198Z,2.14
2022-12-01T05:46:29.109Z,2.10
2022-12-01T05:48:56.065Z,2.11
2022-12-01T05:51:23.083Z,2.09
2022-12-01T05:53:50.519Z,1.99
2022-12-01T05:56:17.711Z,2.07
2022-12-01T05:58:44.540Z,2.07
2022-12-01T06:01:11.614Z,2.12
2022-12-01T06:03:38.730Z,2.15
2022-12-01T06:06:06.025Z,2.10
2022-12-01T06:08:33.341Z,2.16
2022-12-01T06:14:33.034Z,1.99
2022-12-01T06:14:41.225Z,2.15
2022-12-01T06:17:00.030Z,2.16
2022-12-01T06:19:27.143Z,2.16
2022-12-01T06:21:54.130Z,2.21
2022-12-01T06:24:21.200Z,2.09
2022-12-01T06:26:54.649Z,2.22
2022-12-01T06:29:21.674Z,2.10
2022-12-01T06:31:48.847Z,2.16
2022-12-01T06:34:15.871Z,2.19
2022-12-01T06:36:42.977Z,2.23
2022-12-01T06:39:10.407Z,2.20
2022-12-01T06:41:38.203Z,2.24
2022-12-01T06:44:06.032Z,2.12
2022-12-01T06:46:32.943Z,2.19
2022-12-01T06:48:59.998Z,2.20
2022-12-01T06:51:27.601Z,2.30
2022-12-01T06:54:03.757Z,2.28
2022-12-01T06:56:32.260Z,2.39
2022-12-01T06:58:59.482Z,2.29
2022-12-01T07:01:28.681Z,2.24
2022-12-01T07:03:56.242Z,2.27
2022-12-01T07:06:23.267Z,2.31
2022-12-01T07:08:50.494Z,2.25
2022-12-01T07:11:17.614Z,2.38
2022-12-01T07:13:45.718Z,2.34
2022-12-01T07:16:13.143Z,2.40
2022-12-01T07:18:40.823Z,2.35
2022-12-01T07:21:11.949Z,2.41
2022-12-01T07:23:39.170Z,2.42
2022-12-01T07:26:17.651Z,2.33
2022-12-01T07:28:45.441Z,2.27
2022-12-01T07:31:18.328Z,2.40
2022-12-01T07:33:45.705Z,2.43
2022-12-01T07:36:13.302Z,2.41
2022-12-01T07:38:43.112Z,2.38
2022-12-01T07:41:16.267Z,2.24
2022-12-01T07:43:43.340Z,2.36
2022-12-01T07:46:22.264Z,2.38
2022-12-01T07:48:50.724Z,2.41
2022-12-01T07:51:18.012Z,2.45
2022-12-01T07:53:46.965Z,2.51
2022-12-01T07:56:14.117Z,2.56
2022-12-01T07:58:42.012Z,2.59
2022-12-01T08:01:15.270Z,2.62
2022-12-01T08:03:43.145Z,2.70
2022-12-01T08:06:11.516Z,2.69
2022-12-01T08:08:39.818Z,2.66
2022-12-01T08:11:15.752Z,2.51
2022-12-01T08:13:43.221Z,2.50
2022-12-01T08:16:13.005Z,2.60
2022-12-01T08:18:41.212Z,2.23
2022-12-01T08:21:13.092Z,2.45
2022-12-01T08:23:40.541Z,2.48
2022-12-01T08:26:18.714Z,2.48
2022-12-01T08:28:47.436Z,2.47
2022-12-01T08:31:25.604Z,2.49
2022-12-01T08:33:53.637Z,2.44
2022-12-01T08:36:21.852Z,2.43
2022-12-01T08:38:54.279Z,2.52
2022-12-01T08:41:22.155Z,2.53
2022-12-01T08:43:57.822Z,2.57
2022-12-01T08:46:31.521Z,2.53
2022-12-01T08:48:58.552Z,2.50
2022-12-01T08:51:26.587Z,2.47
2022-12-01T08:53:55.572Z,2.48
2022-12-01T08:56:28.024Z,2.55
2022-12-01T08:58:55.345Z,2.53
2022-12-01T09:01:23.209Z,2.48
2022-12-01T09:04:06.320Z,2.56
2022-12-01T09:06:43.182Z,2.57
2022-12-01T09:09:19.514Z,2.43
2022-12-01T09:11:47.851Z,2.54
2022-12-01T09:14:16.673Z,2.50
2022-12-01T09:16:45.285Z,2.57
2022-12-01T09:19:14.564Z,2.56
2022-12-01T09:21:43.824Z,2.58
2022-12-01T09:24:13.379Z,2.54
2022-12-01T09:26:41.521Z,2.46
2022-12-01T09:29:11.761Z,2.46
2022-12-01T09:31:39.741Z,2.56
2022-12-01T09:34:10.886Z,2.54
2022-12-01T09:36:38.649Z,2.62
2022-12-01T09:39:08.127Z,2.60
2022-12-01T09:41:42.931Z,2.41
2022-12-01T09:44:49.207Z,2.64
2022-12-01T09:47:19.426Z,2.71
2022-12-01T09:49:57.586Z,2.67
2022-12-01T09:52:27.726Z,2.60
2022-12-01T09:54:58.065Z,2.60
2022-12-01T09:57:38.815Z,2.48
2022-12-01T10:00:14.965Z,2.69
2022-12-01T10:02:54.465Z,2.59
2022-12-01T10:05:25.469Z,2.57
2022-12-01T10:08:12.714Z,2.64
2022-12-01T10:10:48.104Z,2.64
2022-12-01T10:13:24.467Z,2.61
2022-12-01T10:15:54.146Z,2.76
2022-12-01T10:18:40.274Z,2.77
2022-12-01T10:21:32.085Z,2.75
2022-12-01T10:24:31.038Z,2.85
2022-12-01T10:27:28.758Z,2.79
2022-12-01T10:30:23.701Z,2.75
2022-12-01T10:32:58.616Z,2.81
2022-12-01T10:35:29.684Z,2.72
2022-12-01T10:38:06.875Z,2.84
2022-12-01T10:40:35.382Z,2.84
2022-12-01T10:43:02.660Z,2.92
2022-12-01T10:45:36.331Z,2.89
2022-12-01T10:48:22.725Z,2.91
2022-12-01T10:50:54.969Z,2.87
2022-12-01T10:53:32.329Z,2.88
2022-12-01T10:56:20.837Z,2.78
2022-12-01T10:59:02.850Z,2.80
2022-12-01T11:01:35.201Z,2.85
2022-12-01T11:04:24.508Z,2.83
2022-12-01T11:06:52.122Z,2.82
2022-12-01T11:09:26.158Z,2.83
2022-12-01T11:12:02.645Z,2.82
2022-12-01T11:14:42.583Z,2.77
2022-12-01T11:17:31.035Z,2.79
2022-12-01T11:20:01.573Z,2.78
2022-12-01T11:22:33.660Z,2.81
2022-12-01T11:25:05.520Z,2.84
2022-12-01T11:27:36.806Z,2.85
2022-12-01T11:30:20.458Z,2.83
2022-12-01T11:32:57.069Z,2.79
2022-12-01T11:35:28.658Z,2.64
2022-12-01T11:38:29.163Z,2.74
2022-12-01T11:40:47.316Z,2.26
2022-12-01T11:43:36.237Z,2.84
2022-12-01T11:46:06.639Z,2.82
2022-12-01T11:48:36.529Z,2.79
2022-12-01T11:51:09.612Z,2.76
2022-12-01T11:53:42.092Z,2.75
2022-12-01T11:56:17.014Z,2.76
2022-12-01T11:58:46.126Z,2.75
2022-12-01T12:01:37.990Z,2.79
2022-12-01T12:04:14.157Z,2.73
2022-12-01T12:07:02.360Z,2.76
2022-12-01T12:09:45.240Z,2.72
2022-12-01T12:12:21.411Z,2.70
2022-12-01T12:15:40.050Z,2.73
2022-12-01T12:18:21.851Z,2.70
2022-12-01T12:21:17.306Z,2.44
2022-12-01T12:24:24.006Z,2.76
2022-12-01T12:27:15.499Z,2.73
2022-12-01T12:30:04.278Z,2.71
2022-12-01T12:33:01.543Z,2.74
2022-12-01T12:35:38.844Z,2.66
2022-12-01T12:38:30.898Z,2.63
2022-12-01T12:41:39.904Z,2.64
2022-12-01T12:44:37.066Z,2.37
2022-12-01T12:47:13.993Z,2.64
2022-12-01T12:49:55.661Z,2.49
2022-12-01T12:52:42.392Z,2.59
2022-12-01T12:55:15.761Z,2.56
2022-12-01T12:57:54.787Z,2.55
2022-12-01T13:00:27.692Z,2.51
2022-12-01T13:03:10.086Z,2.55
2022-12-01T13:05:47.157Z,2.57
2022-12-01T13:08:48.254Z,2.52
2022-12-01T13:11:18.690Z,2.47
2022-12-01T13:13:48.883Z,2.50
2022-12-01T13:16:21.887Z,2.25
2022-12-01T13:19:15.584Z,2.25
2022-12-01T13:21:45.904Z,2.45
2022-12-01T13:24:22.819Z,2.39
2022-12-01T13:27:06.557Z,2.47
2022-12-01T13:29:44.048Z,2.38
2022-12-01T13:32:32.848Z,2.37
2022-12-01T13:35:02.318Z,2.53
2022-12-01T13:37:32.717Z,2.59
2022-12-01T13:40:16.846Z,2.47
2022-12-01T13:42:52.908Z,2.42
2022-12-01T13:45:20.497Z,2.45
2022-12-01T13:47:58.056Z,2.41
2022-12-01T13:50:43.791Z,2.43
2022-12-01T13:53:19.835Z,2.37
2022-12-01T13:55:56.430Z,2.26
2022-12-01T13:58:35.129Z,2.26
2022-12-01T14:01:21.273Z,2.35
2022-12-01T14:04:01.214Z,2.31
2022-12-01T14:06:31.207Z,2.37
2022-12-01T14:09:17.013Z,2.33
2022-12-01T14:12:00.733Z,2.38
2022-12-01T14:14:36.421Z,2.29
2022-12-01T14:17:04.490Z,2.28
2022-12-01T14:19:37.598Z,2.35
2022-12-01T14:22:28.015Z,2.30
2022-12-01T14:24:56.081Z,2.32
2022-12-01T14:27:43.879Z,2.27
2022-12-01T14:30:41.720Z,2.24
2022-12-01T14:33:36.516Z,2.28
2022-12-01T14:36:07.786Z,2.18
2022-12-01T14:38:34.707Z,2.23
2022-12-01T14:41:09.031Z,2.19
2022-12-01T14:43:57.359Z,2.08
2022-12-01T14:46:28.828Z,2.13
2022-12-01T14:48:56.038Z,2.14
2022-12-01T14:51:34.315Z,2.20
2022-12-01T14:54:08.425Z,2.14
2022-12-01T14:56:37.604Z,2.11
2022-12-01T14:59:19.039Z,2.11
2022-12-01T15:01:46.280Z,2.07
2022-12-01T15:04:13.275Z,2.12
2022-12-01T15:06:40.898Z,2.14
2022-12-01T15:09:33.666Z,2.06
2022-12-01T15:12:04.997Z,2.09
2022-12-01T15:14:35.272Z,2.09
2022-12-01T15:17:05.350Z,2.16
2022-12-01T15:19:38.618Z,2.15
2022-12-01T15:22:44.977Z,2.09
2022-12-01T15:25:15.594Z,2.05
2022-12-01T15:27:43.855Z,2.02
2022-12-01T15:30:14.597Z,2.13
2022-12-01T15:32:46.043Z,2.11
2022-12-01T15:35:21.267Z,2.08
2022-12-01T15:37:49.295Z,2.10
2022-12-01T15:41:06.056Z,2.16
2022-12-01T15:43:17.494Z,2.16
2022-12-01T15:46:03.264Z,2.18
2022-12-01T15:48:31.596Z,2.23
2022-12-01T15:51:18.498Z,2.15
2022-12-01T15:53:59.144Z,2.19
2022-12-01T15:56:32.607Z,2.20
2022-12-01T15:59:14.300Z,2.19
2022-12-01T16:01:43.644Z,2.18
2022-12-01T16:04:18.978Z,2.13
2022-12-01T16:07:00.919Z,2.17
2022-12-01T16:09:37.076Z,2.18
2022-12-01T16:12:09.910Z,2.16
2022-12-01T16:14:37.402Z,2.13
2022-12-01T16:17:08.436Z,2.14
2022-12-01T16:19:36.249Z,2.13
2022-12-01T16:22:17.862Z,2.09
2022-12-01T16:24:55.604Z,2.19
2022-12-01T16:27:25.912Z,2.17
2022-12-01T16:29:57.996Z,2.20
2022-12-01T16:32:38.467Z,2.20
2022-12-01T16:35:27.609Z,2.15
2022-12-01T16:38:16.803Z,2.16
2022-12-01T16:41:08.820Z,2.15
2022-12-01T16:43:35.677Z,2.20
2022-12-01T16:46:04.392Z,2.13
2022-12-01T16:48:31.818Z,2.15
2022-12-01T16:51:03.458Z,2.16
2022-12-01T16:53:30.392Z,2.13
2022-12-01T16:55:59.437Z,2.24
2022-12-01T16:58:26.450Z,2.10
2022-12-01T17:00:53.559Z,2.17
2022-12-01T17:03:25.894Z,2.17
2022-12-01T17:05:53.840Z,1.91
2022-12-01T17:08:21.212Z,2.18
2022-12-01T17:10:51.212Z,2.21
2022-12-01T17:13:19.525Z,2.17
2022-12-01T17:15:49.044Z,2.22
2022-12-01T17:18:18.385Z,2.24
2022-12-01T17:20:58.419Z,2.14
2022-12-01T17:23:27.916Z,2.20
2022-12-01T17:25:55.223Z,2.23
2022-12-01T17:28:22.513Z,2.16
2022-12-01T17:30:49.551Z,2.07
2022-12-01T17:33:17.109Z,2.06
2022-12-01T17:35:44.235Z,2.08
2022-12-01T17:38:11.308Z,2.02
2022-12-01T17:40:41.223Z,2.14
2022-12-01T17:43:08.632Z,2.23
2022-12-01T17:45:36.109Z,2.18
2022-12-01T17:48:02.984Z,2.18
2022-12-01T17:50:37.661Z,2.16
2022-12-01T17:53:04.447Z,2.10
2022-12-01T17:55:31.309Z,2.12
2022-12-01T17:58:03.817Z,2.13
2022-12-01T18:00:31.553Z,2.14
2022-12-01T18:02:58.615Z,2.13
2022-12-01T18:05:25.744Z,2.07
2022-12-01T18:07:52.735Z,2.08
2022-12-01T18:10:19.805Z,2.07
2022-12-01T18:12:46.742Z,1.98
2022-12-01T18:15:14.626Z,2.07
2022-12-01T18:17:41.615Z,2.01
2022-12-01T18:20:09.265Z,1.92
2022-12-01T18:22:36.303Z,2.04
2022-12-01T18:25:03.635Z,2.10
2022-12-01T18:27:30.592Z,2.03
2022-12-01T18:29:57.504Z,2.06
2022-12-01T18:32:24.337Z,2.01
2022-12-01T18:34:51.373Z,2.02
2022-12-01T18:37:18.605Z,2.04
2022-12-01T18:39:45.480Z,1.95
2022-12-01T18:42:19.409Z,2.04
2022-12-01T18:44:47.006Z,1.98
2022-12-01T18:47:13.920Z,2.01
2022-12-01T18:49:40.772Z,2.01
2022-12-01T18:52:07.584Z,2.04
2022-12-01T18:54:35.899Z,1.96
2022-12-01T18:57:02.810Z,2.02
2022-12-01T18:59:29.755Z,2.01
2022-12-01T19:01:56.806Z,1.99
2022-12-01T19:04:23.937Z,2.00
2022-12-01T19:06:50.854Z,1.94
2022-12-01T19:09:17.875Z,2.02
2022-12-01T19:11:44.944Z,2.02
2022-12-01T19:14:18.295Z,1.98
2022-12-01T19:16:46.607Z,1.98
2022-12-01T19:19:14.734Z,1.99
2022-12-01T19:21:42.949Z,1.94
2022-12-01T19:24:09.924Z,1.90
2022-12-01T19:26:36.890Z,1.93
2022-12-01T19:29:04.663Z,1.94
2022-12-01T19:31:31.644Z,1.94
2022-12-01T19:33:59.671Z,1.95
2022-12-01T19:36:28.092Z,1.94
2022-12-01T19:38:58.069Z,1.94
2022-12-01T19:41:25.731Z,1.94
2022-12-01T19:43:53.699Z,1.98
2022-12-01T19:46:23.345Z,1.95
2022-12-01T19:49:00.419Z,1.94
2022-12-01T19:51:30.979Z,1.96
2022-12-01T19:53:58.495Z,1.92
2022-12-01T19:56:26.483Z,1.96
2022-12-01T19:58:53.425Z,2.01
2022-12-01T20:01:21.196Z,2.04
2022-12-01T20:03:51.034Z,1.97
2022-12-01T20:06:20.740Z,1.93
2022-12-01T20:08:47.785Z,1.96
2022-12-01T20:11:15.611Z,1.96
2022-12-01T20:13:44.484Z,1.97
2022-12-01T20:16:17.762Z,1.98
2022-12-01T20:18:46.567Z,1.89
2022-12-01T20:21:19.671Z,1.87
2022-12-01T20:23:49.574Z,1.84
2022-12-01T20:26:31.087Z,1.98
2022-12-01T20:29:02.543Z,1.95
2022-12-01T20:31:31.896Z,1.93
2022-12-01T20:34:03.221Z,1.89
2022-12-01T20:36:31.050Z,1.85
2022-12-01T20:38:58.103Z,1.88
2022-12-01T20:41:25.136Z,1.87
2022-12-01T20:43:51.963Z,1.88
2022-12-01T20:46:19.414Z,1.84
2022-12-01T20:48:46.495Z,1.80
2022-12-01T20:51:14.914Z,1.82
2022-12-01T20:53:54.479Z,1.80
2022-12-01T20:56:38.496Z,1.86
2022-12-01T20:59:06.201Z,1.83
2022-12-01T21:01:35.365Z,1.86
2022-12-01T21:04:02.508Z,1.79
2022-12-01T21:06:29.515Z,1.79
2022-12-01T21:08:56.589Z,1.85
2022-12-01T21:12:07.922Z,1.90
2022-12-01T21:14:48.093Z,1.92
2022-12-01T21:17:21.750Z,1.93
2022-12-01T21:20:02.000Z,1.89
2022-12-01T21:22:29.003Z,1.93
2022-12-01T21:25:22.852Z,1.89
2022-12-01T21:27:56.770Z,1.88
2022-12-01T21:30:37.683Z,1.93
2022-12-01T21:33:33.537Z,1.75
2022-12-01T21:36:17.671Z,1.77
2022-12-01T21:38:44.962Z,1.82
2022-12-01T21:41:25.566Z,1.78
2022-12-01T21:43:55.642Z,1.83
2022-12-01T21:46:22.754Z,1.83
2022-12-01T21:48:50.347Z,1.79
2022-12-01T21:51:25.125Z,1.81
2022-12-01T21:53:56.753Z,1.80
2022-12-01T21:56:29.104Z,1.82
2022-12-01T21:59:02.592Z,1.84
2022-12-01T22:01:34.572Z,1.88
2022-12-01T22:04:16.784Z,1.82
2022-12-01T22:06:53.489Z,1.78
2022-12-01T22:09:27.610Z,1.83
2022-12-01T22:11:57.546Z,1.85
2022-12-01T22:14:35.823Z,1.88
2022-12-01T22:17:05.783Z,1.89
2022-12-01T22:19:42.529Z,1.87
2022-12-01T22:22:09.588Z,1.86
2022-12-01T22:24:41.270Z,1.87
2022-12-01T22:28:05.336Z,1.80
2022-12-01T22:30:32.700Z,1.65
2022-12-01T22:33:03.694Z,1.67
2022-12-01T22:35:49.357Z,1.87
2022-12-01T22:38:34.056Z,1.86
2022-12-01T22:41:16.840Z,1.86
2022-12-01T22:43:49.782Z,1.91
2022-12-01T22:46:24.283Z,1.88
2022-12-01T22:49:03.177Z,1.96
2022-12-01T22:51:36.639Z,1.95
2022-12-01T22:54:24.831Z,1.88
2022-12-01T22:57:02.430Z,1.88
2022-12-01T22:59:37.724Z,1.92
2022-12-01T23:02:21.296Z,1.86
2022-12-01T23:04:52.333Z,1.99
2022-12-01T23:07:36.825Z,1.91
2022-12-01T23:10:17.071Z,1.95
2022-12-01T23:12:45.537Z,1.95
2022-12-01T23:15:23.308Z,1.98
2022-12-01T23:17:50.830Z,1.93
2022-12-01T23:20:20.756Z,1.91
2022-12-01T23:22:48.076Z,1.85
2022-12-01T23:25:17.788Z,1.98
2022-12-01T23:27:47.095Z,1.83
2022-12-01T23:30:15.814Z,2.01
2022-12-01T23:32:44.271Z,1.91
2022-12-01T23:35:16.633Z,1.95
2022-12-01T23:37:46.453Z,1.90
2022-12-01T23:40:26.581Z,1.94
2022-12-01T23:42:53.709Z,1.94
2022-12-01T23:45:25.247Z,1.96
2022-12-01T23:47:54.660Z,1.99
2022-12-01T23:50:31.016Z,1.97
2022-12-01T23:52:58.016Z,1.98
2022-12-01T23:55:29.975Z,2.09
2022-12-01T23:57:58.699Z,1.97
